sensor_id;sensor_type;location;lat;lon;timestamp;P1;durP1;ratioP1;P2;durP2;ratioP2
84478;SDS011;74701;43.248;0.066;2024-03-22T00:02:18;24.52;;;11.82;;
84478;SDS011;74701;43.248;0.066;2024-03-22T00:04:44;18.05;;;10.73;;
84478;SDS011;74701;43.248;0.066;2024-03-22T00:07:10;19.88;;;11.00;;
84478;SDS011;74701;43.248;0.066;2024-03-22T00:09:36;20.00;;;11.02;;
84478;SDS011;74701;43.248;0.066;2024-03-22T00:12:02;18.88;;;11.60;;
84478;SDS011;74701;43.248;0.066;2024-03-22T00:14:29;18.98;;;10.43;;
84478;SDS011;74701;43.248;0.066;2024-03-22T00:16:55;19.88;;;10.40;;
84478;SDS011;74701;43.248;0.066;2024-03-22T00:19:21;20.92;;;10.40;;
84478;SDS011;74701;43.248;0.066;2024-03-22T00:21:47;21.55;;;10.48;;
84478;SDS011;74701;43.248;0.066;2024-03-22T00:24:13;20.88;;;10.75;;
84478;SDS011;74701;43.248;0.066;2024-03-22T00:26:39;17.13;;;9.63;;
84478;SDS011;74701;43.248;0.066;2024-03-22T00:29:05;16.63;;;10.15;;
84478;SDS011;74701;43.248;0.066;2024-03-22T00:31:31;22.52;;;9.90;;
84478;SDS011;74701;43.248;0.066;2024-03-22T00:33:57;25.45;;;10.73;;
84478;SDS011;74701;43.248;0.066;2024-03-22T00:36:23;20.02;;;10.52;;
84478;SDS011;74701;43.248;0.066;2024-03-22T00:38:49;15.90;;;9.40;;
84478;SDS011;74701;43.248;0.066;2024-03-22T00:41:15;20.02;;;10.55;;
84478;SDS011;74701;43.248;0.066;2024-03-22T00:43:42;18.55;;;9.40;;
84478;SDS011;74701;43.248;0.066;2024-03-22T00:46:08;19.80;;;9.38;;
84478;SDS011;74701;43.248;0.066;2024-03-22T00:48:34;21.05;;;10.60;;
84478;SDS011;74701;43.248;0.066;2024-03-22T00:51:00;20.15;;;9.40;;
84478;SDS011;74701;43.248;0.066;2024-03-22T00:53:26;17.88;;;9.35;;
84478;SDS011;74701;43.248;0.066;2024-03-22T00:55:53;18.10;;;9.43;;
84478;SDS011;74701;43.248;0.066;2024-03-22T00:58:19;16.63;;;7.50;;
84478;SDS011;74701;43.248;0.066;2024-03-22T01:00:46;17.20;;;8.68;;
84478;SDS011;74701;43.248;0.066;2024-03-22T01:03:12;16.83;;;8.15;;
84478;SDS011;74701;43.248;0.066;2024-03-22T01:05:38;15.30;;;7.75;;
84478;SDS011;74701;43.248;0.066;2024-03-22T01:08:05;16.30;;;8.13;;
84478;SDS011;74701;43.248;0.066;2024-03-22T01:10:32;18.48;;;7.80;;
84478;SDS011;74701;43.248;0.066;2024-03-22T01:12:59;18.88;;;8.38;;
84478;SDS011;74701;43.248;0.066;2024-03-22T01:15:26;20.17;;;8.30;;
84478;SDS011;74701;43.248;0.066;2024-03-22T01:17:52;20.63;;;8.18;;
84478;SDS011;74701;43.248;0.066;2024-03-22T01:20:18;19.27;;;7.30;;
84478;SDS011;74701;43.248;0.066;2024-03-22T01:22:45;18.20;;;7.95;;
84478;SDS011;74701;43.248;0.066;2024-03-22T01:25:11;15.73;;;8.93;;
84478;SDS011;74701;43.248;0.066;2024-03-22T01:27:37;15.90;;;9.80;;
84478;SDS011;74701;43.248;0.066;2024-03-22T01:30:03;16.40;;;9.77;;
84478;SDS011;74701;43.248;0.066;2024-03-22T01:32:30;19.00;;;9.32;;
84478;SDS011;74701;43.248;0.066;2024-03-22T01:34:56;22.70;;;10.27;;
84478;SDS011;74701;43.248;0.066;2024-03-22T01:37:22;17.42;;;8.70;;
84478;SDS011;74701;43.248;0.066;2024-03-22T01:39:48;17.58;;;9.43;;
84478;SDS011;74701;43.248;0.066;2024-03-22T01:42:14;17.98;;;9.45;;
84478;SDS011;74701;43.248;0.066;2024-03-22T01:44:41;20.63;;;9.05;;
84478;SDS011;74701;43.248;0.066;2024-03-22T01:47:07;16.38;;;9.45;;
84478;SDS011;74701;43.248;0.066;2024-03-22T01:49:33;22.20;;;9.82;;
84478;SDS011;74701;43.248;0.066;2024-03-22T01:51:59;15.95;;;9.57;;
84478;SDS011;74701;43.248;0.066;2024-03-22T01:54:25;18.30;;;10.05;;
84478;SDS011;74701;43.248;0.066;2024-03-22T01:56:51;18.90;;;9.20;;
84478;SDS011;74701;43.248;0.066;2024-03-22T01:59:17;18.25;;;9.32;;
84478;SDS011;74701;43.248;0.066;2024-03-22T02:01:44;18.27;;;9.43;;
84478;SDS011;74701;43.248;0.066;2024-03-22T02:04:10;17.63;;;10.00;;
84478;SDS011;74701;43.248;0.066;2024-03-22T02:06:36;19.20;;;8.13;;
84478;SDS011;74701;43.248;0.066;2024-03-22T02:09:02;16.60;;;10.07;;
84478;SDS011;74701;43.248;0.066;2024-03-22T02:11:29;19.15;;;9.27;;
84478;SDS011;74701;43.248;0.066;2024-03-22T02:13:56;20.15;;;9.23;;
84478;SDS011;74701;43.248;0.066;2024-03-22T02:16:23;20.27;;;8.75;;
84478;SDS011;74701;43.248;0.066;2024-03-22T02:18:49;17.45;;;8.63;;
84478;SDS011;74701;43.248;0.066;2024-03-22T02:21:15;18.17;;;9.57;;
84478;SDS011;74701;43.248;0.066;2024-03-22T02:23:41;18.10;;;9.65;;
84478;SDS011;74701;43.248;0.066;2024-03-22T02:26:07;16.75;;;8.30;;
84478;SDS011;74701;43.248;0.066;2024-03-22T02:28:34;18.80;;;9.75;;
84478;SDS011;74701;43.248;0.066;2024-03-22T02:31:01;20.48;;;8.80;;
84478;SDS011;74701;43.248;0.066;2024-03-22T02:33:27;20.85;;;9.00;;
84478;SDS011;74701;43.248;0.066;2024-03-22T02:35:53;18.48;;;9.18;;
84478;SDS011;74701;43.248;0.066;2024-03-22T02:38:19;17.60;;;8.70;;
84478;SDS011;74701;43.248;0.066;2024-03-22T02:40:47;16.30;;;8.00;;
84478;SDS011;74701;43.248;0.066;2024-03-22T02:43:13;21.88;;;8.82;;
84478;SDS011;74701;43.248;0.066;2024-03-22T02:45:39;21.15;;;9.15;;
84478;SDS011;74701;43.248;0.066;2024-03-22T02:48:06;19.27;;;9.50;;
84478;SDS011;74701;43.248;0.066;2024-03-22T02:50:32;22.85;;;10.88;;
84478;SDS011;74701;43.248;0.066;2024-03-22T02:52:59;23.33;;;9.80;;
84478;SDS011;74701;43.248;0.066;2024-03-22T02:55:25;17.17;;;10.77;;
84478;SDS011;74701;43.248;0.066;2024-03-22T02:57:51;20.00;;;8.88;;
84478;SDS011;74701;43.248;0.066;2024-03-22T03:00:17;16.98;;;10.13;;
84478;SDS011;74701;43.248;0.066;2024-03-22T03:02:43;15.63;;;9.55;;
84478;SDS011;74701;43.248;0.066;2024-03-22T03:05:09;19.15;;;10.15;;
84478;SDS011;74701;43.248;0.066;2024-03-22T03:07:35;13.32;;;8.45;;
84478;SDS011;74701;43.248;0.066;2024-03-22T03:10:01;15.68;;;8.50;;
84478;SDS011;74701;43.248;0.066;2024-03-22T03:12:28;18.52;;;9.43;;
84478;SDS011;74701;43.248;0.066;2024-03-22T03:14:54;16.23;;;9.10;;
84478;SDS011;74701;43.248;0.066;2024-03-22T03:17:20;18.63;;;9.05;;
84478;SDS011;74701;43.248;0.066;2024-03-22T03:19:46;20.38;;;8.95;;
84478;SDS011;74701;43.248;0.066;2024-03-22T03:22:12;17.52;;;8.82;;
84478;SDS011;74701;43.248;0.066;2024-03-22T03:24:38;13.25;;;8.73;;
84478;SDS011;74701;43.248;0.066;2024-03-22T03:27:04;16.35;;;8.63;;
84478;SDS011;74701;43.248;0.066;2024-03-22T03:29:30;18.10;;;9.10;;
84478;SDS011;74701;43.248;0.066;2024-03-22T03:31:56;16.75;;;9.13;;
84478;SDS011;74701;43.248;0.066;2024-03-22T03:34:22;14.48;;;8.73;;
84478;SDS011;74701;43.248;0.066;2024-03-22T03:36:48;19.00;;;9.60;;
84478;SDS011;74701;43.248;0.066;2024-03-22T03:39:14;18.45;;;9.13;;
84478;SDS011;74701;43.248;0.066;2024-03-22T03:41:40;20.25;;;8.00;;
84478;SDS011;74701;43.248;0.066;2024-03-22T03:44:06;12.02;;;8.15;;
84478;SDS011;74701;43.248;0.066;2024-03-22T03:46:33;14.25;;;8.23;;
84478;SDS011;74701;43.248;0.066;2024-03-22T03:48:59;18.98;;;8.88;;
84478;SDS011;74701;43.248;0.066;2024-03-22T03:51:25;16.88;;;7.22;;
84478;SDS011;74701;43.248;0.066;2024-03-22T03:53:51;18.55;;;8.35;;
84478;SDS011;74701;43.248;0.066;2024-03-22T03:56:17;17.40;;;9.25;;
84478;SDS011;74701;43.248;0.066;2024-03-22T03:58:45;15.82;;;8.02;;
84478;SDS011;74701;43.248;0.066;2024-03-22T04:01:11;15.23;;;8.07;;
84478;SDS011;74701;43.248;0.066;2024-03-22T04:03:37;15.52;;;7.63;;
84478;SDS011;74701;43.248;0.066;2024-03-22T04:06:03;21.13;;;7.97;;
84478;SDS011;74701;43.248;0.066;2024-03-22T04:08:29;21.80;;;8.10;;
84478;SDS011;74701;43.248;0.066;2024-03-22T04:10:56;23.75;;;8.68;;
84478;SDS011;74701;43.248;0.066;2024-03-22T04:13:23;16.45;;;7.85;;
84478;SDS011;74701;43.248;0.066;2024-03-22T04:15:49;16.50;;;8.25;;
84478;SDS011;74701;43.248;0.066;2024-03-22T04:18:15;15.85;;;8.00;;
84478;SDS011;74701;43.248;0.066;2024-03-22T04:20:41;13.77;;;7.65;;
84478;SDS011;74701;43.248;0.066;2024-03-22T04:23:08;17.33;;;8.38;;
84478;SDS011;74701;43.248;0.066;2024-03-22T04:25:34;17.88;;;7.53;;
84478;SDS011;74701;43.248;0.066;2024-03-22T04:28:00;14.68;;;7.97;;
84478;SDS011;74701;43.248;0.066;2024-03-22T04:30:26;15.60;;;8.43;;
84478;SDS011;74701;43.248;0.066;2024-03-22T04:32:52;16.95;;;7.05;;
84478;SDS011;74701;43.248;0.066;2024-03-22T04:35:18;13.90;;;8.07;;
84478;SDS011;74701;43.248;0.066;2024-03-22T04:37:45;12.52;;;7.05;;
84478;SDS011;74701;43.248;0.066;2024-03-22T04:40:11;17.77;;;7.35;;
84478;SDS011;74701;43.248;0.066;2024-03-22T04:42:37;17.02;;;8.63;;
84478;SDS011;74701;43.248;0.066;2024-03-22T04:45:03;20.38;;;8.68;;
84478;SDS011;74701;43.248;0.066;2024-03-22T04:47:29;15.65;;;8.27;;
84478;SDS011;74701;43.248;0.066;2024-03-22T04:49:55;16.73;;;8.00;;
84478;SDS011;74701;43.248;0.066;2024-03-22T04:52:21;18.23;;;8.27;;
84478;SDS011;74701;43.248;0.066;2024-03-22T04:54:47;16.27;;;8.23;;
84478;SDS011;74701;43.248;0.066;2024-03-22T04:57:14;19.23;;;8.00;;
84478;SDS011;74701;43.248;0.066;2024-03-22T04:59:40;15.13;;;8.00;;
84478;SDS011;74701;43.248;0.066;2024-03-22T05:02:06;15.32;;;7.93;;
84478;SDS011;74701;43.248;0.066;2024-03-22T05:04:32;20.52;;;7.90;;
84478;SDS011;74701;43.248;0.066;2024-03-22T05:06:58;16.17;;;7.28;;
84478;SDS011;74701;43.248;0.066;2024-03-22T05:09:24;22.02;;;8.13;;
84478;SDS011;74701;43.248;0.066;2024-03-22T05:11:50;18.75;;;7.85;;
84478;SDS011;74701;43.248;0.066;2024-03-22T05:14:18;13.75;;;7.57;;
84478;SDS011;74701;43.248;0.066;2024-03-22T05:16:45;15.05;;;7.95;;
84478;SDS011;74701;43.248;0.066;2024-03-22T05:19:11;18.25;;;8.07;;
84478;SDS011;74701;43.248;0.066;2024-03-22T05:21:37;14.93;;;7.05;;
84478;SDS011;74701;43.248;0.066;2024-03-22T05:24:04;14.65;;;8.02;;
84478;SDS011;74701;43.248;0.066;2024-03-22T05:26:30;16.23;;;7.97;;
84478;SDS011;74701;43.248;0.066;2024-03-22T05:29:00;21.95;;;8.50;;
84478;SDS011;74701;43.248;0.066;2024-03-22T05:31:27;19.30;;;7.25;;
84478;SDS011;74701;43.248;0.066;2024-03-22T05:33:53;16.38;;;7.90;;
84478;SDS011;74701;43.248;0.066;2024-03-22T05:36:19;18.15;;;8.60;;
84478;SDS011;74701;43.248;0.066;2024-03-22T05:38:45;18.73;;;8.40;;
84478;SDS011;74701;43.248;0.066;2024-03-22T05:41:11;19.40;;;9.32;;
84478;SDS011;74701;43.248;0.066;2024-03-22T05:43:38;18.20;;;8.05;;
84478;SDS011;74701;43.248;0.066;2024-03-22T05:46:04;17.52;;;8.07;;
84478;SDS011;74701;43.248;0.066;2024-03-22T05:48:30;21.45;;;8.25;;
84478;SDS011;74701;43.248;0.066;2024-03-22T05:50:56;20.27;;;8.25;;
84478;SDS011;74701;43.248;0.066;2024-03-22T05:53:22;15.98;;;7.47;;
84478;SDS011;74701;43.248;0.066;2024-03-22T05:55:48;16.58;;;8.13;;
84478;SDS011;74701;43.248;0.066;2024-03-22T05:58:14;15.05;;;7.97;;
84478;SDS011;74701;43.248;0.066;2024-03-22T06:00:40;25.77;;;8.38;;
84478;SDS011;74701;43.248;0.066;2024-03-22T06:03:07;16.35;;;8.88;;
84478;SDS011;74701;43.248;0.066;2024-03-22T06:05:33;17.08;;;7.82;;
84478;SDS011;74701;43.248;0.066;2024-03-22T06:07:59;22.10;;;8.75;;
84478;SDS011;74701;43.248;0.066;2024-03-22T06:10:25;17.42;;;7.60;;
84478;SDS011;74701;43.248;0.066;2024-03-22T06:12:51;15.07;;;7.88;;
84478;SDS011;74701;43.248;0.066;2024-03-22T06:15:17;16.02;;;8.35;;
84478;SDS011;74701;43.248;0.066;2024-03-22T06:17:43;21.48;;;9.07;;
84478;SDS011;74701;43.248;0.066;2024-03-22T06:20:10;38.45;;;9.80;;
84478;SDS011;74701;43.248;0.066;2024-03-22T06:22:37;22.55;;;9.95;;
84478;SDS011;74701;43.248;0.066;2024-03-22T06:25:03;27.33;;;8.80;;
84478;SDS011;74701;43.248;0.066;2024-03-22T06:27:29;33.25;;;10.13;;
84478;SDS011;74701;43.248;0.066;2024-03-22T06:29:55;28.63;;;9.38;;
84478;SDS011;74701;43.248;0.066;2024-03-22T06:32:21;21.02;;;10.20;;
84478;SDS011;74701;43.248;0.066;2024-03-22T06:34:48;19.80;;;9.75;;
84478;SDS011;74701;43.248;0.066;2024-03-22T06:37:14;27.10;;;9.52;;
84478;SDS011;74701;43.248;0.066;2024-03-22T06:39:40;25.90;;;12.00;;
84478;SDS011;74701;43.248;0.066;2024-03-22T06:42:06;24.08;;;11.55;;
84478;SDS011;74701;43.248;0.066;2024-03-22T06:44:32;18.25;;;9.15;;
84478;SDS011;74701;43.248;0.066;2024-03-22T06:46:58;29.13;;;8.45;;
84478;SDS011;74701;43.248;0.066;2024-03-22T06:49:24;36.13;;;9.15;;
84478;SDS011;74701;43.248;0.066;2024-03-22T06:51:50;25.38;;;8.82;;
84478;SDS011;74701;43.248;0.066;2024-03-22T06:54:16;24.55;;;8.93;;
84478;SDS011;74701;43.248;0.066;2024-03-22T06:56:42;28.75;;;9.07;;
84478;SDS011;74701;43.248;0.066;2024-03-22T06:59:08;22.88;;;9.75;;
84478;SDS011;74701;43.248;0.066;2024-03-22T07:01:34;18.85;;;8.18;;
84478;SDS011;74701;43.248;0.066;2024-03-22T07:04:00;32.58;;;9.48;;
84478;SDS011;74701;43.248;0.066;2024-03-22T07:06:26;21.13;;;8.88;;
84478;SDS011;74701;43.248;0.066;2024-03-22T07:08:52;20.90;;;9.32;;
84478;SDS011;74701;43.248;0.066;2024-03-22T07:11:18;22.85;;;8.25;;
84478;SDS011;74701;43.248;0.066;2024-03-22T07:13:45;23.88;;;9.32;;
84478;SDS011;74701;43.248;0.066;2024-03-22T07:16:11;20.42;;;8.57;;
84478;SDS011;74701;43.248;0.066;2024-03-22T07:18:37;29.05;;;8.38;;
84478;SDS011;74701;43.248;0.066;2024-03-22T07:21:03;32.60;;;9.70;;
84478;SDS011;74701;43.248;0.066;2024-03-22T07:23:29;24.42;;;8.98;;
84478;SDS011;74701;43.248;0.066;2024-03-22T07:25:55;26.08;;;9.20;;
84478;SDS011;74701;43.248;0.066;2024-03-22T07:28:21;24.40;;;8.60;;
84478;SDS011;74701;43.248;0.066;2024-03-22T07:30:47;21.38;;;8.70;;
84478;SDS011;74701;43.248;0.066;2024-03-22T07:33:13;25.00;;;9.02;;
84478;SDS011;74701;43.248;0.066;2024-03-22T07:35:42;23.08;;;9.40;;
84478;SDS011;74701;43.248;0.066;2024-03-22T07:38:08;20.48;;;8.07;;
84478;SDS011;74701;43.248;0.066;2024-03-22T07:40:34;25.20;;;8.80;;
84478;SDS011;74701;43.248;0.066;2024-03-22T07:43:00;21.48;;;8.48;;
84478;SDS011;74701;43.248;0.066;2024-03-22T07:45:32;27.30;;;9.05;;
84478;SDS011;74701;43.248;0.066;2024-03-22T07:47:58;25.27;;;9.00;;
84478;SDS011;74701;43.248;0.066;2024-03-22T07:50:24;19.83;;;8.40;;
84478;SDS011;74701;43.248;0.066;2024-03-22T07:52:50;18.15;;;8.57;;
84478;SDS011;74701;43.248;0.066;2024-03-22T07:55:16;17.20;;;9.23;;
84478;SDS011;74701;43.248;0.066;2024-03-22T07:57:42;25.55;;;8.50;;
84478;SDS011;74701;43.248;0.066;2024-03-22T08:00:09;21.65;;;8.77;;
84478;SDS011;74701;43.248;0.066;2024-03-22T08:02:35;18.35;;;7.97;;
84478;SDS011;74701;43.248;0.066;2024-03-22T08:05:01;27.27;;;8.65;;
84478;SDS011;74701;43.248;0.066;2024-03-22T08:07:28;21.92;;;8.43;;
84478;SDS011;74701;43.248;0.066;2024-03-22T08:09:54;22.35;;;8.60;;
84478;SDS011;74701;43.248;0.066;2024-03-22T08:12:21;23.85;;;8.80;;
84478;SDS011;74701;43.248;0.066;2024-03-22T08:14:47;32.97;;;7.95;;
84478;SDS011;74701;43.248;0.066;2024-03-22T08:17:13;24.65;;;8.48;;
84478;SDS011;74701;43.248;0.066;2024-03-22T08:19:40;18.30;;;7.82;;
84478;SDS011;74701;43.248;0.066;2024-03-22T08:22:06;23.40;;;8.25;;
84478;SDS011;74701;43.248;0.066;2024-03-22T08:24:32;24.73;;;7.50;;
84478;SDS011;74701;43.248;0.066;2024-03-22T08:26:58;21.40;;;8.38;;
84478;SDS011;74701;43.248;0.066;2024-03-22T08:29:25;15.95;;;7.28;;
84478;SDS011;74701;43.248;0.066;2024-03-22T08:31:51;18.55;;;8.07;;
84478;SDS011;74701;43.248;0.066;2024-03-22T08:34:17;22.35;;;8.10;;
84478;SDS011;74701;43.248;0.066;2024-03-22T08:36:43;24.90;;;9.07;;
84478;SDS011;74701;43.248;0.066;2024-03-22T08:39:09;19.00;;;8.93;;
84478;SDS011;74701;43.248;0.066;2024-03-22T08:41:36;22.73;;;8.75;;
84478;SDS011;74701;43.248;0.066;2024-03-22T08:44:03;23.38;;;9.48;;
84478;SDS011;74701;43.248;0.066;2024-03-22T08:46:29;22.13;;;9.45;;
84478;SDS011;74701;43.248;0.066;2024-03-22T08:48:57;22.95;;;7.55;;
84478;SDS011;74701;43.248;0.066;2024-03-22T08:51:23;21.15;;;8.02;;
84478;SDS011;74701;43.248;0.066;2024-03-22T08:53:49;22.85;;;9.27;;
84478;SDS011;74701;43.248;0.066;2024-03-22T08:56:15;18.98;;;7.82;;
84478;SDS011;74701;43.248;0.066;2024-03-22T08:58:41;26.15;;;9.00;;
84478;SDS011;74701;43.248;0.066;2024-03-22T09:01:07;20.33;;;8.10;;
84478;SDS011;74701;43.248;0.066;2024-03-22T09:03:35;22.00;;;7.75;;
84478;SDS011;74701;43.248;0.066;2024-03-22T09:06:01;22.67;;;7.28;;
84478;SDS011;74701;43.248;0.066;2024-03-22T09:08:28;21.52;;;13.65;;
84478;SDS011;74701;43.248;0.066;2024-03-22T09:10:54;40.72;;;15.73;;
84478;SDS011;74701;43.248;0.066;2024-03-22T09:13:20;26.13;;;9.82;;
84478;SDS011;74701;43.248;0.066;2024-03-22T09:15:46;28.25;;;11.68;;
84478;SDS011;74701;43.248;0.066;2024-03-22T09:18:12;27.10;;;8.63;;
84478;SDS011;74701;43.248;0.066;2024-03-22T09:20:39;18.95;;;7.10;;
84478;SDS011;74701;43.248;0.066;2024-03-22T09:23:05;15.35;;;7.50;;
84478;SDS011;74701;43.248;0.066;2024-03-22T09:25:31;16.95;;;7.40;;
84478;SDS011;74701;43.248;0.066;2024-03-22T09:27:57;13.95;;;6.25;;
84478;SDS011;74701;43.248;0.066;2024-03-22T09:30:23;18.38;;;6.78;;
84478;SDS011;74701;43.248;0.066;2024-03-22T09:32:49;21.60;;;7.60;;
84478;SDS011;74701;43.248;0.066;2024-03-22T09:35:16;19.67;;;8.63;;
84478;SDS011;74701;43.248;0.066;2024-03-22T09:37:42;16.55;;;6.53;;
84478;SDS011;74701;43.248;0.066;2024-03-22T09:40:09;23.15;;;7.22;;
84478;SDS011;74701;43.248;0.066;2024-03-22T09:42:37;16.63;;;5.22;;
84478;SDS011;74701;43.248;0.066;2024-03-22T09:45:09;13.75;;;6.00;;
84478;SDS011;74701;43.248;0.066;2024-03-22T09:47:38;14.23;;;6.65;;
84478;SDS011;74701;43.248;0.066;2024-03-22T09:50:08;22.02;;;6.90;;
84478;SDS011;74701;43.248;0.066;2024-03-22T09:52:34;21.70;;;6.15;;
84478;SDS011;74701;43.248;0.066;2024-03-22T09:55:01;21.02;;;5.65;;
84478;SDS011;74701;43.248;0.066;2024-03-22T09:57:29;16.10;;;6.00;;
84478;SDS011;74701;43.248;0.066;2024-03-22T09:59:56;13.55;;;5.43;;
84478;SDS011;74701;43.248;0.066;2024-03-22T10:02:23;18.10;;;6.05;;
84478;SDS011;74701;43.248;0.066;2024-03-22T10:04:51;20.73;;;5.90;;
84478;SDS011;74701;43.248;0.066;2024-03-22T10:07:17;14.77;;;5.15;;
84478;SDS011;74701;43.248;0.066;2024-03-22T10:09:44;18.25;;;6.53;;
84478;SDS011;74701;43.248;0.066;2024-03-22T10:12:11;19.45;;;5.65;;
84478;SDS011;74701;43.248;0.066;2024-03-22T10:14:37;22.98;;;5.88;;
84478;SDS011;74701;43.248;0.066;2024-03-22T10:17:05;18.88;;;5.43;;
84478;SDS011;74701;43.248;0.066;2024-03-22T10:19:33;16.33;;;5.95;;
84478;SDS011;74701;43.248;0.066;2024-03-22T10:22:05;18.17;;;5.20;;
84478;SDS011;74701;43.248;0.066;2024-03-22T10:24:31;25.60;;;6.72;;
84478;SDS011;74701;43.248;0.066;2024-03-22T10:26:58;20.30;;;5.75;;
84478;SDS011;74701;43.248;0.066;2024-03-22T10:29:24;15.90;;;5.35;;
84478;SDS011;74701;43.248;0.066;2024-03-22T10:31:51;16.40;;;5.65;;
84478;SDS011;74701;43.248;0.066;2024-03-22T10:34:17;20.83;;;6.22;;
84478;SDS011;74701;43.248;0.066;2024-03-22T10:36:44;17.95;;;6.57;;
84478;SDS011;74701;43.248;0.066;2024-03-22T10:39:12;16.20;;;5.57;;
84478;SDS011;74701;43.248;0.066;2024-03-22T10:41:39;19.85;;;5.20;;
84478;SDS011;74701;43.248;0.066;2024-03-22T10:44:05;21.90;;;5.00;;
84478;SDS011;74701;43.248;0.066;2024-03-22T10:46:33;17.20;;;6.30;;
84478;SDS011;74701;43.248;0.066;2024-03-22T10:49:00;16.83;;;4.88;;
84478;SDS011;74701;43.248;0.066;2024-03-22T10:51:29;22.35;;;5.43;;
84478;SDS011;74701;43.248;0.066;2024-03-22T10:53:55;16.30;;;5.43;;
84478;SDS011;74701;43.248;0.066;2024-03-22T10:56:22;13.18;;;4.65;;
84478;SDS011;74701;43.248;0.066;2024-03-22T10:58:49;23.35;;;6.93;;
84478;SDS011;74701;43.248;0.066;2024-03-22T11:01:22;23.70;;;8.20;;
84478;SDS011;74701;43.248;0.066;2024-03-22T11:03:49;16.88;;;5.70;;
84478;SDS011;74701;43.248;0.066;2024-03-22T11:06:19;21.25;;;5.05;;
84478;SDS011;74701;43.248;0.066;2024-03-22T11:08:49;15.65;;;4.45;;
84478;SDS011;74701;43.248;0.066;2024-03-22T11:11:17;19.35;;;5.07;;
84478;SDS011;74701;43.248;0.066;2024-03-22T11:13:46;13.18;;;5.10;;
84478;SDS011;74701;43.248;0.066;2024-03-22T11:16:13;18.67;;;4.82;;
84478;SDS011;74701;43.248;0.066;2024-03-22T11:18:40;18.02;;;5.03;;
84478;SDS011;74701;43.248;0.066;2024-03-22T11:21:07;19.80;;;4.70;;
84478;SDS011;74701;43.248;0.066;2024-03-22T11:23:34;14.90;;;4.45;;
84478;SDS011;74701;43.248;0.066;2024-03-22T11:26:01;17.55;;;4.32;;
84478;SDS011;74701;43.248;0.066;2024-03-22T11:28:28;20.55;;;5.63;;
84478;SDS011;74701;43.248;0.066;2024-03-22T11:30:54;15.98;;;5.32;;
84478;SDS011;74701;43.248;0.066;2024-03-22T11:33:20;16.65;;;4.90;;
84478;SDS011;74701;43.248;0.066;2024-03-22T11:35:46;14.32;;;3.97;;
84478;SDS011;74701;43.248;0.066;2024-03-22T11:38:13;15.43;;;4.63;;
84478;SDS011;74701;43.248;0.066;2024-03-22T11:40:39;14.30;;;3.97;;
84478;SDS011;74701;43.248;0.066;2024-03-22T11:43:05;19.85;;;5.00;;
84478;SDS011;74701;43.248;0.066;2024-03-22T11:45:31;16.10;;;5.38;;
84478;SDS011;74701;43.248;0.066;2024-03-22T11:48:01;19.25;;;5.20;;
84478;SDS011;74701;43.248;0.066;2024-03-22T11:50:28;13.90;;;4.88;;
84478;SDS011;74701;43.248;0.066;2024-03-22T11:52:54;16.67;;;4.28;;
84478;SDS011;74701;43.248;0.066;2024-03-22T11:55:21;18.02;;;4.55;;
84478;SDS011;74701;43.248;0.066;2024-03-22T11:57:50;18.27;;;4.43;;
84478;SDS011;74701;43.248;0.066;2024-03-22T12:00:18;19.05;;;3.97;;
84478;SDS011;74701;43.248;0.066;2024-03-22T12:02:44;24.38;;;6.43;;
84478;SDS011;74701;43.248;0.066;2024-03-22T12:05:10;16.42;;;5.07;;
84478;SDS011;74701;43.248;0.066;2024-03-22T12:07:36;18.92;;;5.63;;
84478;SDS011;74701;43.248;0.066;2024-03-22T12:10:03;19.45;;;5.15;;
84478;SDS011;74701;43.248;0.066;2024-03-22T12:12:29;14.95;;;4.00;;
84478;SDS011;74701;43.248;0.066;2024-03-22T12:14:55;13.88;;;4.47;;
84478;SDS011;74701;43.248;0.066;2024-03-22T12:17:21;18.27;;;4.40;;
84478;SDS011;74701;43.248;0.066;2024-03-22T12:19:47;15.13;;;3.95;;
84478;SDS011;74701;43.248;0.066;2024-03-22T12:22:13;19.65;;;5.45;;
84478;SDS011;74701;43.248;0.066;2024-03-22T12:24:39;18.23;;;4.78;;
84478;SDS011;74701;43.248;0.066;2024-03-22T12:27:05;25.85;;;4.88;;
84478;SDS011;74701;43.248;0.066;2024-03-22T12:29:32;12.85;;;4.22;;
84478;SDS011;74701;43.248;0.066;2024-03-22T12:31:58;16.20;;;4.10;;
84478;SDS011;74701;43.248;0.066;2024-03-22T12:34:29;15.73;;;5.03;;
84478;SDS011;74701;43.248;0.066;2024-03-22T12:36:55;17.52;;;3.88;;
84478;SDS011;74701;43.248;0.066;2024-03-22T12:39:21;22.83;;;4.60;;
84478;SDS011;74701;43.248;0.066;2024-03-22T12:41:47;28.30;;;4.80;;
84478;SDS011;74701;43.248;0.066;2024-03-22T12:44:13;18.17;;;4.70;;
84478;SDS011;74701;43.248;0.066;2024-03-22T12:46:40;19.27;;;4.53;;
84478;SDS011;74701;43.248;0.066;2024-03-22T12:49:10;17.67;;;4.22;;
84478;SDS011;74701;43.248;0.066;2024-03-22T12:51:36;14.00;;;4.43;;
84478;SDS011;74701;43.248;0.066;2024-03-22T12:54:03;14.55;;;3.88;;
84478;SDS011;74701;43.248;0.066;2024-03-22T12:56:30;13.63;;;3.95;;
84478;SDS011;74701;43.248;0.066;2024-03-22T12:58:56;15.60;;;4.18;;
84478;SDS011;74701;43.248;0.066;2024-03-22T13:01:22;17.05;;;6.35;;
84478;SDS011;74701;43.248;0.066;2024-03-22T13:03:48;17.75;;;4.50;;
84478;SDS011;74701;43.248;0.066;2024-03-22T13:06:14;17.13;;;4.03;;
84478;SDS011;74701;43.248;0.066;2024-03-22T13:08:40;15.90;;;4.15;;
84478;SDS011;74701;43.248;0.066;2024-03-22T13:11:06;17.77;;;3.38;;
84478;SDS011;74701;43.248;0.066;2024-03-22T13:13:36;19.02;;;4.45;;
84478;SDS011;74701;43.248;0.066;2024-03-22T13:16:02;14.80;;;3.63;;
84478;SDS011;74701;43.248;0.066;2024-03-22T13:18:28;14.20;;;3.65;;
84478;SDS011;74701;43.248;0.066;2024-03-22T13:20:55;15.25;;;3.35;;
84478;SDS011;74701;43.248;0.066;2024-03-22T13:23:21;13.35;;;3.75;;
84478;SDS011;74701;43.248;0.066;2024-03-22T13:25:47;15.73;;;4.07;;
84478;SDS011;74701;43.248;0.066;2024-03-22T13:28:14;12.32;;;3.83;;
84478;SDS011;74701;43.248;0.066;2024-03-22T13:30:45;17.17;;;4.25;;
84478;SDS011;74701;43.248;0.066;2024-03-22T13:33:11;17.30;;;4.05;;
84478;SDS011;74701;43.248;0.066;2024-03-22T13:35:37;13.68;;;4.22;;
84478;SDS011;74701;43.248;0.066;2024-03-22T13:38:03;15.45;;;3.80;;
84478;SDS011;74701;43.248;0.066;2024-03-22T13:40:29;20.75;;;4.65;;
84478;SDS011;74701;43.248;0.066;2024-03-22T13:42:55;17.27;;;4.00;;
84478;SDS011;74701;43.248;0.066;2024-03-22T13:45:21;19.40;;;4.22;;
84478;SDS011;74701;43.248;0.066;2024-03-22T13:47:47;14.52;;;4.47;;
84478;SDS011;74701;43.248;0.066;2024-03-22T13:50:14;15.85;;;3.70;;
84478;SDS011;74701;43.248;0.066;2024-03-22T13:52:40;15.32;;;4.93;;
84478;SDS011;74701;43.248;0.066;2024-03-22T13:55:06;12.18;;;4.05;;
84478;SDS011;74701;43.248;0.066;2024-03-22T13:57:33;17.85;;;4.03;;
84478;SDS011;74701;43.248;0.066;2024-03-22T13:59:59;14.30;;;4.03;;
84478;SDS011;74701;43.248;0.066;2024-03-22T14:02:28;19.00;;;4.88;;
84478;SDS011;74701;43.248;0.066;2024-03-22T14:04:56;17.83;;;4.15;;
84478;SDS011;74701;43.248;0.066;2024-03-22T14:07:22;11.43;;;3.60;;
84478;SDS011;74701;43.248;0.066;2024-03-22T14:09:48;17.17;;;4.78;;
84478;SDS011;74701;43.248;0.066;2024-03-22T14:12:14;22.13;;;3.60;;
84478;SDS011;74701;43.248;0.066;2024-03-22T14:14:40;13.65;;;3.53;;
84478;SDS011;74701;43.248;0.066;2024-03-22T14:17:06;12.10;;;3.53;;
84478;SDS011;74701;43.248;0.066;2024-03-22T14:19:33;14.88;;;4.28;;
84478;SDS011;74701;43.248;0.066;2024-03-22T14:21:59;16.77;;;4.20;;
84478;SDS011;74701;43.248;0.066;2024-03-22T14:24:25;15.25;;;4.03;;
84478;SDS011;74701;43.248;0.066;2024-03-22T14:26:51;13.30;;;3.45;;
84478;SDS011;74701;43.248;0.066;2024-03-22T14:29:17;14.98;;;3.92;;